This is the latest recevied weather packets stored in our database for station/object TA2EE-10. If no packets are shown the sender has not sent any weather packets the latest 10 day(s).
| Time | Temp. | Humidity | Pressure | Rain* | Wind** | Luminosity | Snow |
|---|---|---|---|---|---|---|---|
| 1787575451 | 38.33° C | 16% | 914 hPa | - | - | 0 W/m² | - |
| 1787573329 | 39.44° C | 16% | 914 hPa | - | - | 0 W/m² | - |
| 1787571207 | 40° C | 16% | 915 hPa | - | - | 0 W/m² | - |
| 1787569085 | 40.56° C | 16% | 915 hPa | - | - | 0 W/m² | - |
| 1787569017 | 41.11° C | 16% | 915 hPa | - | - | 0 W/m² | - |
| 1787566895 | 40.56° C | 17% | 915 hPa | - | - | 0 W/m² | - |
| 1787564773 | 39.44° C | 20% | 916 hPa | - | - | 0 W/m² | - |
| 1787562651 | 36.67° C | 22% | 916 hPa | - | - | 0 W/m² | - |
| 1787560529 | 35.56° C | 23% | 916 hPa | - | - | 0 W/m² | - |
| 1787558407 | 36.11° C | 23% | 917 hPa | - | - | 0 W/m² | - |
| 1787556285 | 36.67° C | 22% | 917 hPa | - | - | 0 W/m² | - |
| 1787554163 | 37.22° C | 22% | 917 hPa | - | - | 0 W/m² | - |
| 1787552040 | 38.89° C | 19% | 917 hPa | - | - | 0 W/m² | - |
| 1787549918 | 37.22° C | 21% | 917 hPa | - | - | 0 W/m² | - |
| 1787547796 | 32.78° C | 26% | 917 hPa | - | - | 0 W/m² | - |
| 1787545674 | 31.11° C | 28% | 917 hPa | - | - | 0 W/m² | - |
| 1787543552 | 31.11° C | 28% | 917 hPa | - | - | 0 W/m² | - |
| 1787541430 | 31.67° C | 28% | 916 hPa | - | - | 0 W/m² | - |
| 1787539308 | 31.67° C | 27% | 916 hPa | - | - | 0 W/m² | - |
| 1787537185 | 31.67° C | 27% | 916 hPa | - | - | 0 W/m² | - |
| 1787535063 | 31.67° C | 27% | 916 hPa | - | - | 0 W/m² | - |
| 1787532941 | 31.67° C | 26% | 916 hPa | - | - | 0 W/m² | - |
| 1787530818 | 31.67° C | 25% | 916 hPa | - | - | 0 W/m² | - |
| 1787528696 | 31.67° C | 25% | 916 hPa | - | - | 0 W/m² | - |
| 1787526574 | 32.22° C | 24% | 916 hPa | - | - | 0 W/m² | - |
* Rain since midnight (hover to see other rain measurements)
** Current wind speed in m/s (hover to see current wind gust speed)